Time;durP1;ratioP1;P1;durP2;ratioP2;P2;SDS_P1;SDS_P2;PMS_P1;PMS_P2;Temp;Humidity;BMP_temperature;BMP_pressure;BME280_temperature;BME280_humidity;BME280_pressure;Samples;Min_cycle;Max_cycle;Signal;HPM_P1;HPM_P2
2021/01/23 00:01:21;;;;;;;2.57;2.37;;;7.10;80.00;;;;;;4967357;28;20286;-73
2021/01/23 00:03:46;;;;;;;3.20;2.03;;;7.10;80.10;;;;;;4946147;29;20266;-74
2021/01/23 00:06:12;;;;;;;2.77;2.03;;;7.10;80.00;;;;;;4965523;28;20197;-75
2021/01/23 00:08:38;;;;;;;2.53;2.30;;;7.10;80.20;;;;;;4966839;28;20550;-75
2021/01/23 00:11:04;;;;;;;2.03;1.93;;;7.10;80.20;;;;;;4966120;28;20221;-75
2021/01/23 00:13:30;;;;;;;1.77;1.67;;;7.00;80.30;;;;;;4967165;28;20202;-76
2021/01/23 00:15:56;;;;;;;7.50;2.03;;;6.90;80.50;;;;;;4966791;28;20249;-73
2021/01/23 00:18:22;;;;;;;1.77;1.67;;;6.90;80.40;;;;;;4959360;28;20557;-73
2021/01/23 00:20:47;;;;;;;1.47;1.43;;;6.90;80.40;;;;;;4959975;28;20192;-73
2021/01/23 00:23:13;;;;;;;4.20;1.80;;;6.90;80.60;;;;;;4966450;28;20585;-73
2021/01/23 00:25:39;;;;;;;1.87;1.77;;;6.90;80.80;;;;;;4967099;28;20269;-74
2021/01/23 00:28:05;;;;;;;2.20;2.00;;;6.90;80.70;;;;;;4966543;28;20285;-74
2021/01/23 00:30:31;;;;;;;2.53;2.43;;;6.90;80.70;;;;;;4966867;28;20198;-74
2021/01/23 00:32:56;;;;;;;1.77;1.67;;;6.90;80.50;;;;;;4965935;28;20221;-74
2021/01/23 00:35:22;;;;;;;2.03;1.83;;;6.90;80.60;;;;;;4965018;28;20170;-74
2021/01/23 00:37:48;;;;;;;1.73;1.63;;;6.90;80.60;;;;;;4967019;28;20261;-73
2021/01/23 00:40:15;;;;;;;3.13;2.13;;;6.90;80.80;;;;;;4965138;28;20698;-74
2021/01/23 00:42:41;;;;;;;3.63;1.63;;;6.80;80.70;;;;;;4965801;28;20193;-74
2021/01/23 00:45:08;;;;;;;2.10;1.83;;;6.80;80.60;;;;;;4948764;28;20186;-74
2021/01/23 00:47:34;;;;;;;2.23;2.13;;;6.80;80.60;;;;;;4963527;28;20862;-74
2021/01/23 00:49:59;;;;;;;2.23;2.03;;;6.80;80.50;;;;;;4966005;28;20178;-74
2021/01/23 00:52:25;;;;;;;2.50;2.30;;;6.70;81.20;;;;;;4966826;28;20206;-74
2021/01/23 00:54:51;;;;;;;2.80;2.20;;;6.70;81.30;;;;;;4967405;28;20212;-74
2021/01/23 00:57:17;;;;;;;4.03;2.57;;;6.70;81.10;;;;;;4966702;28;20181;-74
2021/01/23 00:59:42;;;;;;;3.90;2.30;;;6.70;81.00;;;;;;4966604;28;20183;-74
2021/01/23 01:02:08;;;;;;;2.60;2.40;;;6.70;80.90;;;;;;4959612;28;20187;-75
2021/01/23 01:04:34;;;;;;;3.20;2.47;;;6.70;80.90;;;;;;4945582;28;20182;-76
2021/01/23 01:06:59;;;;;;;2.07;1.97;;;6.70;80.90;;;;;;4949214;28;20212;-75
2021/01/23 01:09:25;;;;;;;2.37;2.17;;;6.70;81.10;;;;;;4956475;28;20266;-75
2021/01/23 01:11:51;;;;;;;3.73;2.63;;;6.70;81.50;;;;;;4947780;29;20176;-75
2021/01/23 01:14:16;;;;;;;2.33;2.23;;;6.60;81.50;;;;;;4938905;28;20190;-75
2021/01/23 01:16:42;;;;;;;4.07;2.93;;;6.60;81.70;;;;;;4965128;28;20228;-75
2021/01/23 01:19:09;;;;;;;2.53;2.43;;;6.50;81.60;;;;;;4962829;28;20178;-75
2021/01/23 01:21:34;;;;;;;2.50;2.30;;;6.50;81.40;;;;;;4948805;28;20186;-75
2021/01/23 01:24:00;;;;;;;2.37;2.27;;;6.50;81.90;;;;;;4968621;28;20178;-75
2021/01/23 01:26:26;;;;;;;2.50;2.40;;;6.40;82.00;;;;;;4938398;28;20178;-74
2021/01/23 01:28:52;;;;;;;5.03;2.83;;;6.40;81.80;;;;;;4970375;28;20794;-75
2021/01/23 01:31:17;;;;;;;2.87;2.57;;;6.40;82.10;;;;;;4970263;28;20276;-75
2021/01/23 01:33:43;;;;;;;3.67;2.40;;;6.30;82.40;;;;;;4951036;28;20179;-75
2021/01/23 01:36:09;;;;;;;2.97;2.20;;;6.20;82.90;;;;;;4969981;28;20186;-75
2021/01/23 01:38:34;;;;;;;5.20;3.13;;;6.20;82.80;;;;;;4970371;28;20206;-75
2021/01/23 01:41:00;;;;;;;2.80;2.37;;;6.20;82.50;;;;;;4969763;28;20185;-75
2021/01/23 01:43:26;;;;;;;4.87;2.60;;;6.20;82.20;;;;;;4969663;28;20651;-75
2021/01/23 01:45:51;;;;;;;2.13;1.93;;;6.20;82.40;;;;;;4969879;28;20182;-75
2021/01/23 01:48:17;;;;;;;2.87;2.23;;;6.20;82.30;;;;;;4968762;28;20209;-75
2021/01/23 01:50:43;;;;;;;3.23;2.93;;;6.20;82.30;;;;;;4966332;28;20269;-75
2021/01/23 01:53:10;;;;;;;4.07;3.20;;;6.20;82.50;;;;;;4970021;28;20361;-75
2021/01/23 01:55:36;;;;;;;2.93;2.77;;;6.20;82.60;;;;;;4969849;28;20178;-75
2021/01/23 01:58:02;;;;;;;2.80;2.60;;;6.10;82.80;;;;;;4969254;28;20257;-75
2021/01/23 02:00:29;;;;;;;3.07;2.60;;;6.00;83.20;;;;;;4969231;28;20186;-75
2021/01/23 02:03:16;;;;;;;2.97;2.70;;;6.00;83.50;;;;;;4950601;28;20220;-76
2021/01/23 02:05:50;;;;;;;3.00;2.80;;;6.10;83.00;;;;;;4968738;28;20702;-75
2021/01/23 02:08:43;;;;;;;3.73;3.00;;;6.10;82.70;;;;;;4968928;28;20196;-75
2021/01/23 02:11:31;;;;;;;2.83;2.40;;;6.00;82.70;;;;;;4967486;28;20703;-75
2021/01/23 02:14:05;;;;;;;3.83;3.07;;;5.90;83.20;;;;;;4968933;28;20182;-75
2021/01/23 02:16:38;;;;;;;3.00;2.73;;;5.90;83.00;;;;;;4969133;28;20194;-74
2021/01/23 02:19:26;;;;;;;2.80;2.67;;;5.90;83.10;;;;;;4967491;28;20610;-75
2021/01/23 02:22:04;;;;;;;3.63;3.13;;;5.90;83.90;;;;;;4969002;28;20633;-75
2021/01/23 02:24:31;;;;;;;6.37;3.13;;;5.80;83.90;;;;;;4968656;28;20170;-75
2021/01/23 02:27:06;;;;;;;3.90;2.87;;;5.80;83.80;;;;;;4968995;28;20209;-76
2021/01/23 02:29:54;;;;;;;3.13;2.93;;;5.80;84.20;;;;;;4968642;28;20687;-75
2021/01/23 02:32:22;;;;;;;2.43;2.33;;;5.80;84.00;;;;;;4954204;28;20167;-75
2021/01/23 02:34:48;;;;;;;3.40;3.10;;;5.90;83.80;;;;;;4967645;28;20174;-75
2021/01/23 02:37:14;;;;;;;2.70;2.60;;;5.90;84.00;;;;;;4968698;28;20229;-74
2021/01/23 02:39:40;;;;;;;2.87;2.47;;;5.90;83.90;;;;;;4950485;28;20678;-75
2021/01/23 02:42:07;;;;;;;2.77;2.57;;;5.90;83.80;;;;;;4967050;28;20190;-75
2021/01/23 02:44:33;;;;;;;2.63;2.43;;;6.00;83.70;;;;;;4968213;28;20271;-75
2021/01/23 02:46:58;;;;;;;2.67;2.57;;;6.00;83.40;;;;;;4967465;28;20217;-75
2021/01/23 02:49:25;;;;;;;4.67;2.83;;;6.00;83.90;;;;;;4949429;28;20201;-75
2021/01/23 02:52:11;;;;;;;3.10;2.90;;;5.90;83.90;;;;;;4968632;28;20190;-75
2021/01/23 02:55:02;;;;;;;2.20;2.00;;;5.90;84.20;;;;;;4968416;28;20212;-77
2021/01/23 02:57:28;;;;;;;2.33;2.17;;;6.00;83.70;;;;;;4967240;28;20583;-75
2021/01/23 02:59:59;;;;;;;3.33;2.80;;;6.00;83.70;;;;;;4967983;28;20194;-75
2021/01/23 03:02:25;;;;;;;2.97;2.67;;;6.00;83.80;;;;;;4967109;28;20187;-75
2021/01/23 03:04:56;;;;;;;3.23;2.50;;;6.00;83.70;;;;;;4965964;28;20233;-74
2021/01/23 03:07:22;;;;;;;3.17;2.80;;;6.10;83.60;;;;;;4968182;28;20190;-74
2021/01/23 03:09:48;;;;;;;2.03;1.93;;;6.10;83.60;;;;;;4967380;28;20191;-75
2021/01/23 03:12:13;;;;;;;2.40;2.13;;;6.10;83.40;;;;;;4967992;28;20186;-75
2021/01/23 03:14:39;;;;;;;1.93;1.90;;;6.20;83.20;;;;;;4967898;28;20213;-75
2021/01/23 03:17:05;;;;;;;2.10;2.00;;;6.20;83.00;;;;;;4967459;28;20194;-75
2021/01/23 03:19:30;;;;;;;2.37;2.27;;;6.30;82.70;;;;;;4966909;28;20215;-76
2021/01/23 03:21:56;;;;;;;2.37;2.17;;;6.30;82.60;;;;;;4956873;28;20971;-75
2021/01/23 03:24:22;;;;;;;2.27;2.17;;;6.30;82.60;;;;;;4962380;28;20615;-75
2021/01/23 03:26:49;;;;;;;2.40;2.20;;;6.30;82.60;;;;;;4965842;28;20221;-75
2021/01/23 03:29:16;;;;;;;2.73;2.37;;;6.20;83.00;;;;;;4967039;28;21149;-75
2021/01/23 03:31:41;;;;;;;1.90;1.80;;;6.10;83.60;;;;;;4951479;28;20186;-75
2021/01/23 03:34:07;;;;;;;2.97;2.30;;;6.20;83.60;;;;;;4963103;28;20575;-75
2021/01/23 03:36:34;;;;;;;2.33;2.10;;;6.30;83.30;;;;;;4946373;28;20190;-76
2021/01/23 03:38:59;;;;;;;3.73;2.10;;;6.40;83.00;;;;;;4968037;28;20197;-76
2021/01/23 03:41:25;;;;;;;5.83;2.43;;;6.40;82.70;;;;;;4968776;28;20186;-75
2021/01/23 03:43:51;;;;;;;2.67;2.40;;;6.50;82.60;;;;;;4968219;28;20197;-75
2021/01/23 03:46:17;;;;;;;2.40;2.20;;;6.50;82.50;;;;;;4965426;28;20636;-75
2021/01/23 03:48:42;;;;;;;1.77;1.40;;;6.60;82.40;;;;;;4977270;28;20221;-75
2021/01/23 03:51:08;;;;;;;2.43;2.03;;;6.60;82.20;;;;;;4961125;28;20266;-76
2021/01/23 03:53:34;;;;;;;2.27;2.07;;;6.60;82.20;;;;;;4939345;28;20182;-75
2021/01/23 03:56:00;;;;;;;2.90;2.03;;;6.60;82.40;;;;;;4968319;28;20226;-75
2021/01/23 03:58:26;;;;;;;2.30;2.20;;;6.60;82.30;;;;;;4968175;28;20189;-75
2021/01/23 04:00:52;;;;;;;3.10;2.73;;;6.50;82.40;;;;;;4967816;28;20182;-76
2021/01/23 04:03:17;;;;;;;5.90;2.70;;;6.40;82.70;;;;;;4967352;28;20273;-76
2021/01/23 04:05:43;;;;;;;3.00;2.80;;;6.30;83.20;;;;;;4966875;28;20216;-76
2021/01/23 04:08:09;;;;;;;2.63;2.43;;;6.40;83.00;;;;;;4965814;28;20197;-75
2021/01/23 04:10:34;;;;;;;2.30;2.10;;;6.40;82.90;;;;;;4965901;28;20667;-76
2021/01/23 04:13:01;;;;;;;2.37;2.17;;;6.40;82.90;;;;;;4950419;28;20897;-75
2021/01/23 04:15:27;;;;;;;3.57;3.10;;;6.50;82.70;;;;;;4967751;28;20186;-75
2021/01/23 04:17:53;;;;;;;3.30;2.77;;;6.40;82.70;;;;;;4967475;28;20186;-75
2021/01/23 04:20:19;;;;;;;2.37;2.13;;;6.50;82.70;;;;;;4967087;28;20248;-75
2021/01/23 04:22:46;;;;;;;3.67;3.07;;;6.50;82.50;;;;;;4949959;28;20186;-75
2021/01/23 04:25:12;;;;;;;2.47;2.37;;;6.40;82.70;;;;;;4965366;28;20746;-75
2021/01/23 04:27:38;;;;;;;2.87;2.63;;;6.40;83.00;;;;;;4967262;28;20231;-75
2021/01/23 04:30:05;;;;;;;2.90;2.70;;;6.40;83.00;;;;;;4949416;28;20232;-75
2021/01/23 04:32:30;;;;;;;3.47;2.90;;;6.30;83.10;;;;;;4956932;28;20755;-75
2021/01/23 04:34:56;;;;;;;2.93;2.73;;;6.40;83.00;;;;;;4966203;28;20189;-75
2021/01/23 04:37:22;;;;;;;3.50;3.07;;;6.40;82.90;;;;;;4966834;28;20194;-75
2021/01/23 04:39:47;;;;;;;3.70;2.47;;;6.50;82.70;;;;;;4966412;28;20218;-75
2021/01/23 04:42:13;;;;;;;2.93;2.73;;;6.50;82.90;;;;;;4966319;28;20198;-75
2021/01/23 04:44:39;;;;;;;5.17;3.13;;;6.50;82.80;;;;;;4967079;28;20280;-75
2021/01/23 04:47:05;;;;;;;3.47;2.97;;;6.50;82.70;;;;;;4966307;28;20202;-75
2021/01/23 04:49:32;;;;;;;2.90;2.73;;;6.50;82.60;;;;;;4967368;28;20174;-75
2021/01/23 04:51:58;;;;;;;5.00;2.70;;;6.40;83.10;;;;;;4966834;28;20190;-75
2021/01/23 04:54:24;;;;;;;3.03;2.73;;;6.30;83.20;;;;;;4965956;28;20182;-75
2021/01/23 04:56:50;;;;;;;3.90;3.03;;;6.30;83.10;;;;;;4961943;28;20226;-75
2021/01/23 04:59:17;;;;;;;4.17;3.57;;;6.40;83.40;;;;;;4968768;28;20178;-75
2021/01/23 05:01:43;;;;;;;3.17;2.67;;;6.30;83.30;;;;;;4970648;28;20595;-75
2021/01/23 05:04:08;;;;;;;6.30;2.93;;;6.20;83.50;;;;;;4971059;28;20190;-75
2021/01/23 05:06:34;;;;;;;2.90;2.60;;;6.20;83.50;;;;;;4953496;28;20241;-75
2021/01/23 05:09:00;;;;;;;2.97;2.67;;;6.30;83.40;;;;;;4969838;28;20220;-76
2021/01/23 05:11:49;;;;;;;2.67;2.47;;;6.30;83.30;;;;;;4970341;28;20945;-76
2021/01/23 05:14:16;;;;;;;3.87;3.13;;;6.30;83.10;;;;;;4971048;28;21134;-76
2021/01/23 05:16:42;;;;;;;3.90;3.53;;;6.40;83.40;;;;;;4970595;28;20175;-76
2021/01/23 05:19:09;;;;;;;4.07;2.80;;;6.30;83.50;;;;;;4971243;28;20209;-76
2021/01/23 05:21:35;;;;;;;2.83;2.63;;;6.40;83.30;;;;;;4970031;28;20182;-75
2021/01/23 05:24:10;;;;;;;3.07;2.93;;;6.40;83.20;;;;;;4969824;28;20209;-75
2021/01/23 05:26:37;;;;;;;3.20;2.97;;;6.50;83.20;;;;;;4963365;28;20174;-75
2021/01/23 05:29:14;;;;;;;3.67;3.23;;;6.50;83.10;;;;;;4934390;28;20705;-75
2021/01/23 05:31:41;;;;;;;3.60;3.40;;;6.50;82.90;;;;;;4956871;28;20592;-75
2021/01/23 05:34:29;;;;;;;6.07;3.70;;;6.50;83.20;;;;;;4959406;28;20190;-75
2021/01/23 05:36:55;;;;;;;5.63;3.27;;;6.40;83.30;;;;;;4968742;28;20186;-76
2021/01/23 05:39:41;;;;;;;3.87;3.30;;;6.40;83.40;;;;;;4966158;28;20240;-75
2021/01/23 05:42:07;;;;;;;3.67;3.37;;;6.40;83.30;;;;;;4952966;28;20198;-75
2021/01/23 05:44:33;;;;;;;3.57;3.23;;;6.40;83.20;;;;;;4968212;28;20186;-75
2021/01/23 05:46:59;;;;;;;3.43;3.13;;;6.40;83.20;;;;;;4967003;28;20671;-75
2021/01/23 05:49:24;;;;;;;4.60;3.13;;;6.30;83.30;;;;;;4970272;28;20190;-75
2021/01/23 05:51:51;;;;;;;4.20;3.47;;;6.40;83.20;;;;;;4969397;28;20244;-76
2021/01/23 05:54:17;;;;;;;4.60;3.53;;;6.40;83.30;;;;;;4969916;28;20217;-76
2021/01/23 05:56:43;;;;;;;3.97;3.47;;;6.50;83.10;;;;;;4968404;28;20182;-76
2021/01/23 05:59:09;;;;;;;3.13;2.93;;;6.50;82.90;;;;;;4968831;28;20275;-76
2021/01/23 06:01:38;;;;;;;3.57;3.27;;;6.60;82.90;;;;;;4967383;28;21006;-76
2021/01/23 06:04:04;;;;;;;4.10;3.70;;;6.60;82.90;;;;;;4951712;28;20216;-75
2021/01/23 06:06:46;;;;;;;5.50;3.20;;;6.60;82.90;;;;;;4967735;28;20209;-75
2021/01/23 06:09:32;;;;;;;4.97;3.80;;;6.60;82.80;;;;;;4967528;28;20991;-75
2021/01/23 06:11:58;;;;;;;5.43;3.43;;;6.50;83.10;;;;;;4969531;28;20202;-75
2021/01/23 06:14:38;;;;;;;3.70;3.40;;;6.50;83.00;;;;;;4967017;28;20671;-75
2021/01/23 06:17:04;;;;;;;7.03;4.00;;;6.60;83.00;;;;;;4940049;28;20214;-75
2021/01/23 06:19:30;;;;;;;4.17;3.53;;;6.60;82.90;;;;;;4951564;28;20187;-75
2021/01/23 06:21:55;;;;;;;5.50;4.60;;;6.50;82.90;;;;;;4969710;28;20209;-75
2021/01/23 06:24:30;;;;;;;4.53;4.03;;;6.50;83.20;;;;;;4951171;28;20663;-75
2021/01/23 06:27:00;;;;;;;5.97;3.60;;;6.50;83.10;;;;;;4968185;28;20196;-75
2021/01/23 06:29:42;;;;;;;5.50;3.40;;;6.60;83.10;;;;;;4966883;28;20722;-75
2021/01/23 06:32:14;;;;;;;5.47;3.83;;;6.60;83.00;;;;;;4954379;28;20186;-74
2021/01/23 06:35:01;;;;;;;4.47;4.00;;;6.60;83.20;;;;;;4966874;28;20179;-75
2021/01/23 06:37:37;;;;;;;5.83;4.47;;;6.50;83.20;;;;;;4959550;28;20894;-75
2021/01/23 06:40:07;;;;;;;4.27;3.87;;;6.50;83.20;;;;;;4957587;28;20727;-74
2021/01/23 06:42:41;;;;;;;4.73;4.13;;;6.60;83.20;;;;;;4968903;28;20182;-74
2021/01/23 06:45:16;;;;;;;5.33;4.30;;;6.50;83.10;;;;;;4968949;28;20178;-75
2021/01/23 06:47:43;;;;;;;5.93;4.40;;;6.60;83.20;;;;;;4970595;28;20209;-75
2021/01/23 06:50:10;;;;;;;5.53;4.97;;;6.60;83.20;;;;;;4964538;28;20190;-75
2021/01/23 06:52:49;;;;;;;9.13;5.37;;;6.60;83.10;;;;;;4968134;28;20182;-75
2021/01/23 06:55:16;;;;;;;5.53;4.90;;;6.60;83.00;;;;;;4968276;28;20182;-75
2021/01/23 06:57:46;;;;;;;8.07;4.67;;;6.60;83.00;;;;;;4966582;28;20237;-74
2021/01/23 07:00:12;;;;;;;5.97;5.20;;;6.70;83.00;;;;;;4967841;28;20182;-74
2021/01/23 07:02:39;;;;;;;8.93;5.10;;;6.70;83.00;;;;;;4963527;28;20804;-73
2021/01/23 07:05:09;;;;;;;9.80;5.97;;;6.60;82.90;;;;;;4950734;28;20305;-73
2021/01/23 07:07:39;;;;;;;6.33;5.50;;;6.60;83.10;;;;;;4967498;28;20201;-74
2021/01/23 07:10:14;;;;;;;7.87;6.23;;;6.60;83.00;;;;;;4966651;28;20174;-75
2021/01/23 07:12:42;;;;;;;5.60;5.07;;;6.70;83.10;;;;;;4967200;28;20167;-75
2021/01/23 07:15:09;;;;;;;5.30;4.80;;;6.70;83.00;;;;;;4963196;28;20279;-75
2021/01/23 07:17:43;;;;;;;7.63;5.90;;;6.70;83.10;;;;;;4966672;28;20186;-76
2021/01/23 07:20:14;;;;;;;6.07;5.47;;;6.80;82.90;;;;;;4950647;28;20178;-76
2021/01/23 07:22:41;;;;;;;9.17;5.57;;;6.80;83.00;;;;;;4968567;28;20189;-76
2021/01/23 07:25:10;;;;;;;8.53;5.70;;;6.80;82.90;;;;;;4968445;28;20631;-76
2021/01/23 07:27:36;;;;;;;9.33;5.10;;;6.80;82.90;;;;;;4950187;28;20237;-76
2021/01/23 07:30:12;;;;;;;6.93;5.83;;;6.80;82.90;;;;;;4968038;28;20194;-76
2021/01/23 07:32:44;;;;;;;8.43;4.87;;;6.90;82.90;;;;;;4966245;28;20569;-75
2021/01/23 07:35:11;;;;;;;6.27;4.70;;;6.80;82.70;;;;;;4949036;28;20564;-75
2021/01/23 07:37:54;;;;;;;7.90;5.40;;;6.80;82.80;;;;;;4968119;28;20212;-75
2021/01/23 07:40:25;;;;;;;6.30;5.60;;;6.90;82.80;;;;;;4967754;28;20893;-75
2021/01/23 07:42:52;;;;;;;5.73;4.97;;;7.00;83.00;;;;;;4950099;28;20186;-74
2021/01/23 07:45:20;;;;;;;8.30;6.27;;;7.20;82.90;;;;;;4948939;28;20269;-74
2021/01/23 07:48:05;;;;;;;12.10;5.93;;;7.30;82.30;;;;;;4965207;28;20202;-74
2021/01/23 07:50:45;;;;;;;10.27;5.77;;;7.50;81.80;;;;;;4931879;29;20189;-74
2021/01/23 07:53:24;;;;;;;7.40;6.40;;;7.60;81.20;;;;;;4946970;28;20261;-74
2021/01/23 07:55:51;;;;;;;13.80;6.70;;;7.70;81.10;;;;;;4967660;28;20182;-74
2021/01/23 07:58:18;;;;;;;9.37;6.10;;;7.80;81.20;;;;;;4967152;28;20187;-74
2021/01/23 08:00:44;;;;;;;5.67;5.13;;;7.90;80.70;;;;;;4967472;28;20261;-75
2021/01/23 08:03:11;;;;;;;9.67;6.60;;;8.00;80.90;;;;;;4949836;28;20186;-75
2021/01/23 08:05:48;;;;;;;11.27;6.53;;;8.00;79.90;;;;;;4967292;28;20357;-75
2021/01/23 08:08:29;;;;;;;7.17;6.47;;;7.90;79.90;;;;;;4957305;28;20206;-75
2021/01/23 08:10:55;;;;;;;9.00;5.97;;;8.00;80.30;;;;;;4967261;28;20181;-75
2021/01/23 08:13:26;;;;;;;11.00;6.73;;;8.10;80.70;;;;;;4966629;28;20182;-74
2021/01/23 08:15:53;;;;;;;13.00;7.27;;;8.10;79.90;;;;;;4950783;28;20186;-75
2021/01/23 08:18:21;;;;;;;10.13;5.87;;;8.10;79.90;;;;;;4947987;29;20179;-75
2021/01/23 08:20:47;;;;;;;5.67;5.17;;;8.20;80.00;;;;;;4961816;28;20182;-75
2021/01/23 08:23:18;;;;;;;8.23;6.20;;;8.30;80.00;;;;;;4965219;28;20183;-75
2021/01/23 08:25:48;;;;;;;8.90;7.20;;;8.40;79.80;;;;;;4960472;28;20194;-75
2021/01/23 08:28:34;;;;;;;15.03;8.17;;;8.40;79.20;;;;;;4947710;29;20206;-75
2021/01/23 08:31:10;;;;;;;11.83;7.47;;;8.40;79.40;;;;;;4951173;28;20659;-76
2021/01/23 08:33:36;;;;;;;8.33;6.67;;;8.60;79.60;;;;;;4965279;28;20257;-76
2021/01/23 08:36:02;;;;;;;8.90;6.73;;;8.70;79.10;;;;;;4967027;28;20182;-76
2021/01/23 08:38:28;;;;;;;9.13;6.90;;;8.70;78.60;;;;;;4949577;28;20189;-76
2021/01/23 08:40:54;;;;;;;11.83;6.93;;;8.90;79.30;;;;;;4966319;28;20186;-75
2021/01/23 08:43:19;;;;;;;9.73;6.47;;;9.00;79.10;;;;;;4967678;28;20194;-75
2021/01/23 08:45:45;;;;;;;7.87;7.07;;;9.20;78.90;;;;;;4962096;28;20659;-75
2021/01/23 08:48:11;;;;;;;13.43;7.00;;;9.40;78.10;;;;;;4963746;28;20209;-75
2021/01/23 08:50:36;;;;;;;10.87;6.90;;;9.50;77.40;;;;;;4965227;28;20187;-75
2021/01/23 08:53:02;;;;;;;11.97;8.47;;;9.80;77.40;;;;;;4954270;28;20970;-76
2021/01/23 08:55:28;;;;;;;11.20;7.47;;;10.00;77.00;;;;;;4949860;28;20233;-76
2021/01/23 08:58:01;;;;;;;9.57;7.75;;;10.40;77.00;;;;;;4965262;28;20216;-74
2021/01/23 09:00:27;;;;;;;12.48;8.20;;;10.90;76.70;;;;;;4948996;28;20316;-74
2021/01/23 09:02:53;;;;;;;8.70;7.20;;;11.60;76.60;;;;;;4966634;28;20671;-74
2021/01/23 09:05:18;;;;;;;16.77;8.23;;;12.30;73.60;;;;;;4957920;28;21055;-75
2021/01/23 09:07:44;;;;;;;10.50;7.97;;;12.50;71.00;;;;;;4955888;28;20694;-74
2021/01/23 09:10:11;;;;;;;12.18;8.02;;;12.90;71.50;;;;;;4949990;28;20233;-74
2021/01/23 09:12:37;;;;;;;14.07;8.80;;;13.40;71.10;;;;;;4947375;28;20187;-74
2021/01/23 09:15:05;;;;;;;12.02;9.07;;;13.90;68.90;;;;;;4947068;29;20206;-74
2021/01/23 09:17:31;;;;;;;16.35;8.73;;;14.30;67.40;;;;;;4947178;28;20637;-74
2021/01/23 09:19:56;;;;;;;15.55;9.00;;;14.70;66.10;;;;;;4957923;28;20348;-73
2021/01/23 09:22:22;;;;;;;13.48;8.70;;;14.80;65.40;;;;;;4958859;28;20958;-74
2021/01/23 09:24:49;;;;;;;14.98;9.10;;;14.60;65.90;;;;;;4962932;28;20193;-75
2021/01/23 09:27:14;;;;;;;12.93;8.98;;;14.70;66.90;;;;;;4964488;28;20214;-75
2021/01/23 09:29:40;;;;;;;13.63;9.02;;;14.80;66.60;;;;;;4957489;28;20182;-75
2021/01/23 09:32:07;;;;;;;10.82;8.70;;;15.10;66.10;;;;;;4950659;28;20269;-78
2021/01/23 09:34:35;;;;;;;12.25;8.43;;;15.50;66.20;;;;;;4945268;28;20186;-75
2021/01/23 09:37:03;;;;;;;14.88;9.43;;;16.00;65.20;;;;;;4958914;28;20182;-74
2021/01/23 09:39:30;;;;;;;17.38;8.98;;;16.10;63.50;;;;;;4958892;28;20219;-75
2021/01/23 09:41:59;;;;;;;14.13;9.23;;;16.20;63.90;;;;;;4948175;28;21107;-76
2021/01/23 09:44:26;;;;;;;15.68;9.75;;;16.20;64.10;;;;;;4955350;28;20186;-76
2021/01/23 09:46:52;;;;;;;14.35;9.30;;;16.20;63.40;;;;;;4948381;28;20241;-76
2021/01/23 09:49:18;;;;;;;14.13;9.60;;;16.00;64.00;;;;;;4950613;28;20560;-77
2021/01/23 09:51:43;;;;;;;17.55;9.05;;;15.80;64.20;;;;;;4948860;28;20291;-75
2021/01/23 09:54:09;;;;;;;11.88;8.52;;;15.70;64.30;;;;;;4950477;29;20175;-75
2021/01/23 09:56:35;;;;;;;15.73;8.98;;;15.50;65.30;;;;;;4948340;29;20550;-75
2021/01/23 09:59:00;;;;;;;16.65;9.20;;;15.30;64.40;;;;;;4930343;29;20549;-74
2021/01/23 10:01:26;;;;;;;12.70;9.15;;;14.90;64.80;;;;;;4950791;28;20622;-75
2021/01/23 10:03:52;;;;;;;12.20;9.90;;;14.40;65.70;;;;;;4968592;28;20186;-75
2021/01/23 10:06:18;;;;;;;13.63;8.88;;;14.00;66.00;;;;;;4951726;28;20186;-76
2021/01/23 10:08:43;;;;;;;17.83;10.15;;;13.70;67.80;;;;;;4969434;28;20203;-75
2021/01/23 10:11:09;;;;;;;16.45;10.80;;;13.40;67.50;;;;;;4970068;28;20675;-76
2021/01/23 10:13:35;;;;;;;11.05;8.85;;;12.90;68.90;;;;;;4970595;28;20179;-77
2021/01/23 10:16:01;;;;;;;16.70;9.20;;;12.70;69.30;;;;;;4971054;28;20566;-75
2021/01/23 10:18:27;;;;;;;13.20;9.27;;;12.60;69.50;;;;;;4951442;28;20240;-78
2021/01/23 10:20:54;;;;;;;13.63;8.45;;;12.40;70.20;;;;;;4969852;28;20580;-76
2021/01/23 10:23:20;;;;;;;12.13;8.75;;;12.30;70.80;;;;;;4968734;28;20174;-76
2021/01/23 10:25:46;;;;;;;12.48;8.77;;;12.20;71.10;;;;;;4971304;28;20186;-78
2021/01/23 10:28:11;;;;;;;11.82;8.93;;;12.20;70.80;;;;;;4953792;28;20202;-79
2021/01/23 10:30:37;;;;;;;11.95;8.57;;;11.90;71.50;;;;;;4966707;28;20745;-75
2021/01/23 10:33:03;;;;;;;13.85;9.20;;;11.80;71.90;;;;;;4967066;28;20189;-76
2021/01/23 10:35:29;;;;;;;11.85;8.70;;;11.80;72.20;;;;;;4967013;28;20178;-75
2021/01/23 10:37:54;;;;;;;12.98;8.75;;;11.80;72.40;;;;;;4968285;28;20218;-74
2021/01/23 10:40:20;;;;;;;9.60;8.23;;;11.80;72.30;;;;;;4948362;28;20191;-74
2021/01/23 10:42:46;;;;;;;10.40;7.70;;;11.80;72.40;;;;;;4958987;28;20743;-74
2021/01/23 10:45:12;;;;;;;10.35;7.75;;;11.80;72.20;;;;;;4967311;28;20232;-75
2021/01/23 10:47:37;;;;;;;7.85;6.97;;;11.80;72.40;;;;;;4966639;28;20309;-74
2021/01/23 10:50:05;;;;;;;9.77;7.68;;;11.80;72.30;;;;;;4968900;28;20190;-75
2021/01/23 10:52:31;;;;;;;12.90;7.07;;;11.90;72.20;;;;;;4950354;28;20187;-74
2021/01/23 10:54:57;;;;;;;7.93;7.13;;;11.90;72.20;;;;;;4950026;28;20257;-73
2021/01/23 10:57:23;;;;;;;7.80;6.78;;;11.80;72.10;;;;;;4968172;28;20655;-74
2021/01/23 10:59:48;;;;;;;7.30;6.20;;;11.80;71.90;;;;;;4968036;28;20186;-74
2021/01/23 11:02:17;;;;;;;10.07;7.30;;;11.70;72.20;;;;;;4967932;28;20178;-73
2021/01/23 11:04:43;;;;;;;11.93;7.68;;;11.60;72.70;;;;;;4939092;28;20270;-74
2021/01/23 11:07:09;;;;;;;9.80;7.72;;;11.50;73.00;;;;;;4959726;28;20195;-75
2021/01/23 11:09:34;;;;;;;16.25;6.57;;;11.50;73.20;;;;;;4954131;28;20206;-75
2021/01/23 11:12:00;;;;;;;13.40;8.20;;;11.40;73.20;;;;;;4956042;28;20629;-75
2021/01/23 11:14:26;;;;;;;11.15;7.32;;;11.40;73.20;;;;;;4954100;28;20189;-75
2021/01/23 11:16:52;;;;;;;16.08;8.85;;;11.20;73.80;;;;;;4965523;28;20193;-73
2021/01/23 11:19:17;;;;;;;19.58;8.15;;;11.20;73.80;;;;;;4958560;28;20289;-74
2021/01/23 11:21:43;;;;;;;8.55;6.63;;;11.10;74.10;;;;;;4966678;28;20265;-74
2021/01/23 11:24:09;;;;;;;12.55;7.30;;;11.10;74.00;;;;;;4957244;28;20626;-73
2021/01/23 11:26:35;;;;;;;8.55;6.70;;;11.00;74.10;;;;;;4966386;28;20189;-74
2021/01/23 11:29:01;;;;;;;11.48;7.35;;;10.90;74.10;;;;;;4967859;28;20228;-76
2021/01/23 11:31:27;;;;;;;14.45;8.98;;;10.70;74.80;;;;;;4953827;28;20183;-76
2021/01/23 11:33:53;;;;;;;12.27;8.10;;;10.70;75.00;;;;;;4965530;28;20194;-75
2021/01/23 11:36:19;;;;;;;8.82;7.57;;;10.70;75.00;;;;;;4967298;28;20182;-76
2021/01/23 11:38:45;;;;;;;13.52;8.73;;;10.70;74.90;;;;;;4956323;28;20190;-78
2021/01/23 11:41:11;;;;;;;10.75;7.43;;;10.80;75.00;;;;;;4953615;28;20208;-79
2021/01/23 11:43:36;;;;;;;8.88;6.28;;;10.70;75.30;;;;;;4958431;28;20214;-77
2021/01/23 11:46:03;;;;;;;11.50;7.80;;;10.70;75.40;;;;;;4960160;28;20192;-77
2021/01/23 11:48:29;;;;;;;10.55;7.75;;;10.70;75.60;;;;;;4966008;28;20194;-77
2021/01/23 11:50:55;;;;;;;10.32;7.47;;;10.60;75.90;;;;;;4952642;28;20649;-81
2021/01/23 11:53:21;;;;;;;11.20;8.02;;;10.50;76.10;;;;;;4952883;28;20174;-78
2021/01/23 11:55:49;;;;;;;14.65;7.78;;;10.50;75.90;;;;;;4969362;28;20841;-78
2021/01/23 11:58:15;;;;;;;10.63;7.53;;;10.50;75.90;;;;;;4968727;28;20216;-76
2021/01/23 12:00:40;;;;;;;10.45;7.07;;;10.60;75.90;;;;;;4959284;28;20174;-78
2021/01/23 12:03:06;;;;;;;9.70;7.03;;;10.60;75.80;;;;;;4967107;28;20256;-78
2021/01/23 12:05:33;;;;;;;10.60;6.82;;;10.60;75.80;;;;;;4968623;28;20181;-76
2021/01/23 12:07:59;;;;;;;8.02;5.97;;;10.50;75.80;;;;;;4962971;28;20210;-76
2021/01/23 12:10:25;;;;;;;13.77;7.28;;;10.50;75.70;;;;;;4948756;28;20248;-75
2021/01/23 12:12:50;;;;;;;15.05;6.88;;;10.50;76.10;;;;;;4967267;28;20226;-73
2021/01/23 12:15:17;;;;;;;9.27;6.18;;;10.50;76.00;;;;;;4966872;28;20190;-74
2021/01/23 12:17:44;;;;;;;11.80;7.10;;;10.50;76.40;;;;;;4964918;28;20182;-75
2021/01/23 12:20:10;;;;;;;13.82;7.05;;;10.60;76.30;;;;;;4966427;28;20192;-75
2021/01/23 12:22:39;;;;;;;10.90;7.20;;;10.60;76.30;;;;;;4966764;28;20401;-74
2021/01/23 12:25:07;;;;;;;9.90;7.38;;;10.60;76.20;;;;;;4948580;28;20595;-73
2021/01/23 12:27:34;;;;;;;13.25;7.70;;;10.60;76.20;;;;;;4966366;28;20297;-73
2021/01/23 12:30:00;;;;;;;10.98;7.57;;;10.70;76.00;;;;;;4948815;28;20229;-74
2021/01/23 12:32:25;;;;;;;8.75;6.97;;;10.70;75.80;;;;;;4966411;28;20237;-73
2021/01/23 12:34:51;;;;;;;8.48;7.28;;;10.80;75.80;;;;;;4965609;28;20649;-74
2021/01/23 12:37:17;;;;;;;10.90;8.07;;;10.80;75.90;;;;;;4966223;28;20182;-75
2021/01/23 12:39:42;;;;;;;15.75;7.93;;;10.80;75.70;;;;;;4966071;28;20249;-74
2021/01/23 12:42:08;;;;;;;9.70;7.55;;;10.80;75.60;;;;;;4949180;28;20273;-73
2021/01/23 12:44:34;;;;;;;13.48;8.48;;;10.90;75.70;;;;;;4966261;28;20186;-73
2021/01/23 12:47:00;;;;;;;9.20;7.68;;;10.90;75.70;;;;;;4965893;28;20281;-74
2021/01/23 12:49:26;;;;;;;12.35;8.88;;;10.90;75.50;;;;;;4965867;28;20197;-73
2021/01/23 12:51:52;;;;;;;13.77;8.35;;;10.90;75.60;;;;;;4964636;28;20595;-74
2021/01/23 12:54:17;;;;;;;13.45;8.05;;;11.00;75.70;;;;;;4965616;28;20179;-74